Time;durP1;ratioP1;P1;durP2;ratioP2;P2;SDS_P1;SDS_P2;PMS_P1;PMS_P2;Temp;Humidity;BMP_temperature;BMP_pressure;BME280_temperature;BME280_humidity;BME280_pressure;Samples;Min_cycle;Max_cycle;Signal;HPM_P1;HPM_P2
2022/01/24 00:01:37;;;;;;;6.55;4.53;;;;;;;8.40;70.73;101706.41;5091443;28;20470;-59
2022/01/24 00:04:05;;;;;;;8.00;4.53;;;;;;;8.42;70.73;101708.13;5091224;28;20056;-59
2022/01/24 00:06:32;;;;;;;7.00;4.78;;;;;;;8.43;70.63;101696.72;5090503;28;20109;-60
2022/01/24 00:09:00;;;;;;;7.18;4.43;;;;;;;8.43;70.29;101698.47;5090095;28;20048;-61
2022/01/24 00:11:40;;;;;;;7.70;3.75;;;;;;;8.45;70.60;101704.59;5089979;28;20100;-59
2022/01/24 00:17:10;;;;;;;6.97;4.40;;;;;;;8.45;70.44;101705.44;5091264;28;20044;-60
2022/01/24 00:27:56;;;;;;;6.88;4.72;;;;;;;8.37;70.48;101711.72;5091131;28;20093;-59
2022/01/24 00:30:23;;;;;;;7.32;4.18;;;;;;;8.34;70.24;101707.38;5090749;28;20052;-60
2022/01/24 00:32:50;;;;;;;5.80;4.28;;;;;;;8.33;70.25;101705.63;5091119;28;20056;-59
2022/01/24 00:35:17;;;;;;;6.15;4.45;;;;;;;8.30;70.43;101706.53;5089778;28;20052;-59
2022/01/24 00:37:44;;;;;;;5.03;3.72;;;;;;;8.29;70.38;101709.19;5089963;28;20490;-60
2022/01/24 00:40:11;;;;;;;6.22;4.22;;;;;;;8.27;70.07;101701.38;5091164;28;20129;-59
2022/01/24 00:42:55;;;;;;;7.53;4.60;;;;;;;8.24;69.81;101703.16;5089698;28;20056;-60
2022/01/24 00:55:49;;;;;;;5.97;4.10;;;;;;;8.13;70.44;101692.81;5090882;28;20121;-61
2022/01/24 00:58:15;;;;;;;7.07;4.55;;;;;;;8.11;70.45;101700.72;5090605;28;20105;-60
2022/01/24 01:00:42;;;;;;;7.93;4.40;;;;;;;8.11;70.33;101698.09;5089654;28;20060;-60
2022/01/24 01:03:09;;;;;;;7.07;4.18;;;;;;;8.10;70.04;101693.75;5090806;28;20055;-59
2022/01/24 01:19:09;;;;;;;6.93;4.90;;;;;;;8.12;70.12;101686.75;5089575;28;20048;-60
2022/01/24 01:21:36;;;;;;;7.20;4.95;;;;;;;8.10;70.37;101680.63;5089521;28;20044;-60
2022/01/24 01:24:02;;;;;;;7.47;5.35;;;;;;;8.11;70.41;101678.88;5090695;28;20105;-59
2022/01/24 01:26:38;;;;;;;6.05;4.38;;;;;;;8.10;70.42;101678.00;5093857;28;20044;-61
2022/01/24 01:29:10;;;;;;;7.50;5.38;;;;;;;8.10;70.19;101678.00;5094441;28;20048;-60
2022/01/24 01:31:58;;;;;;;9.20;4.70;;;;;;;8.11;70.59;101684.97;5094227;28;20055;-60
2022/01/24 01:39:53;;;;;;;8.57;5.00;;;;;;;8.15;70.78;101691.06;5094107;28;20469;-60
2022/01/24 01:55:53;;;;;;;9.27;4.75;;;;;;;8.27;70.87;101666.38;5093971;28;20044;-59
2022/01/24 01:58:21;;;;;;;11.43;4.85;;;;;;;8.29;70.66;101667.22;5092290;28;20098;-59
2022/01/24 02:00:51;;;;;;;6.63;4.25;;;;;;;8.30;70.45;101668.97;5093517;28;20060;-59
2022/01/24 02:03:18;;;;;;;6.00;4.60;;;;;;;8.32;70.83;101670.66;5092280;28;20818;-60
2022/01/24 02:05:45;;;;;;;6.18;4.13;;;;;;;8.35;70.84;101675.00;5093932;28;20148;-59
2022/01/24 02:08:12;;;;;;;6.60;4.38;;;;;;;8.38;70.77;101672.34;5075868;28;20052;-60
2022/01/24 02:10:41;;;;;;;7.55;4.60;;;;;;;8.40;70.81;101669.66;5093257;28;20040;-60
2022/01/24 02:13:09;;;;;;;5.72;3.90;;;;;;;8.41;70.75;101661.75;5093423;28;20052;-62
2022/01/24 02:15:50;;;;;;;6.55;4.43;;;;;;;8.43;70.75;101665.25;5093858;28;20554;-59
2022/01/24 02:26:00;;;;;;;7.88;5.32;;;;;;;8.46;70.54;101656.44;5093342;28;20488;-58
2022/01/24 02:28:32;;;;;;;6.22;4.40;;;;;;;8.45;70.51;101658.19;5093478;28;20056;-60
2022/01/24 02:33:26;;;;;;;7.25;5.38;;;;;;;8.46;70.70;101657.28;5093190;28;20757;-60
2022/01/24 02:35:52;;;;;;;8.55;5.80;;;;;;;8.46;70.64;101657.28;5093084;28;20462;-62
2022/01/24 02:38:43;;;;;;;8.25;4.68;;;;;;;8.47;70.50;101656.44;5091204;28;20105;-58
2022/01/24 02:49:34;;;;;;;11.23;5.70;;;;;;;8.53;70.25;101657.22;5092768;28;20044;-60
2022/01/24 02:52:13;;;;;;;10.07;6.18;;;;;;;8.51;69.35;101659.84;5092735;28;20647;-61
2022/01/24 02:54:41;;;;;;;10.13;6.50;;;;;;;8.55;70.69;101658.06;5091365;28;20041;-61
2022/01/24 02:57:09;;;;;;;9.30;6.40;;;;;;;8.55;70.49;101656.31;5092827;28;20133;-60
2022/01/24 02:59:37;;;;;;;7.85;5.47;;;;;;;8.56;70.39;101655.41;5092385;28;20051;-59
2022/01/24 03:02:04;;;;;;;9.60;5.93;;;;;;;8.58;70.49;101658.88;5092620;28;20507;-60
2022/01/24 03:04:31;;;;;;;8.63;6.15;;;;;;;8.60;70.44;101666.75;5092528;28;20044;-59
2022/01/24 03:06:58;;;;;;;8.82;6.28;;;;;;;8.58;70.38;101655.38;5092402;28;20056;-60
2022/01/24 03:09:25;;;;;;;10.70;6.65;;;;;;;8.60;70.67;101656.25;5092116;28;20071;-60
2022/01/24 03:12:13;;;;;;;7.97;6.00;;;;;;;8.60;70.70;101654.47;5092593;28;20101;-59
2022/01/24 03:14:40;;;;;;;8.52;6.03;;;;;;;8.60;70.59;101651.84;5092447;28;20052;-59
2022/01/24 03:17:07;;;;;;;8.93;6.47;;;;;;;8.62;70.74;101649.19;5092294;28;20044;-60
2022/01/24 03:19:34;;;;;;;11.90;7.13;;;;;;;8.63;70.57;101643.03;5092081;28;20070;-60
2022/01/24 03:22:00;;;;;;;10.48;7.10;;;;;;;8.64;70.80;101638.66;5090731;28;20055;-59
2022/01/24 03:24:27;;;;;;;12.35;7.80;;;;;;;8.63;70.32;101637.78;5091950;28;20055;-59
2022/01/24 03:26:53;;;;;;;11.43;7.35;;;;;;;8.63;70.25;101634.31;5092162;28;20052;-60
2022/01/24 03:29:20;;;;;;;10.68;7.50;;;;;;;8.62;70.47;101630.81;5091876;28;20048;-59
2022/01/24 03:31:47;;;;;;;10.35;7.15;;;;;;;8.62;70.73;101633.44;5091902;28;20055;-59
2022/01/24 03:34:14;;;;;;;10.02;7.13;;;;;;;8.62;70.37;101627.31;5091806;28;20097;-60
2022/01/24 03:36:42;;;;;;;10.23;7.53;;;;;;;8.61;70.30;101634.34;5092099;28;20158;-60
2022/01/24 03:39:10;;;;;;;12.80;7.38;;;;;;;8.60;70.28;101633.47;5090358;28;20044;-59
2022/01/24 03:41:39;;;;;;;12.10;7.93;;;;;;;8.60;70.33;101641.34;5090620;28;20048;-60
2022/01/24 03:44:10;;;;;;;13.43;8.75;;;;;;;8.60;70.06;101635.25;5090369;28;20048;-60
2022/01/24 03:47:02;;;;;;;12.30;7.63;;;;;;;8.60;70.38;101632.63;5091845;28;20126;-60
2022/01/24 03:49:45;;;;;;;11.35;6.70;;;;;;;8.59;70.44;101626.50;5091786;28;20108;-60
2022/01/24 03:52:13;;;;;;;10.30;7.10;;;;;;;8.60;70.16;101630.84;5090541;28;20054;-59
2022/01/24 03:54:43;;;;;;;10.75;7.55;;;;;;;8.60;70.36;101633.47;5091552;28;20060;-59
2022/01/24 03:57:14;;;;;;;9.75;6.45;;;;;;;8.57;69.80;101630.88;5091569;28;20063;-59
2022/01/24 03:59:41;;;;;;;11.32;6.97;;;;;;;8.59;70.42;101623.88;5091615;28;20056;-59
2022/01/24 04:02:09;;;;;;;9.25;6.78;;;;;;;8.58;70.29;101629.13;5091459;28;20117;-59
2022/01/24 04:04:36;;;;;;;11.07;7.25;;;;;;;8.59;70.35;101625.63;5090095;28;20484;-61
2022/01/24 04:07:04;;;;;;;8.82;6.15;;;;;;;8.60;70.46;101627.38;5091482;28;20048;-59
2022/01/24 04:09:30;;;;;;;9.55;6.97;;;;;;;8.58;70.12;101614.25;5089987;28;20094;-59
2022/01/24 04:11:58;;;;;;;8.85;6.85;;;;;;;8.58;69.77;101616.00;5091292;28;20043;-59
2022/01/24 04:14:37;;;;;;;9.90;6.75;;;;;;;8.58;69.91;101623.88;5090526;28;20370;-59
2022/01/24 04:17:21;;;;;;;7.57;6.45;;;;;;;8.55;70.14;101626.56;5091317;28;20059;-60
2022/01/24 04:22:31;;;;;;;8.02;6.47;;;;;;;8.53;69.54;101628.38;5091073;28;20518;-59
2022/01/24 04:25:00;;;;;;;10.30;7.15;;;;;;;8.54;70.11;101636.22;5091323;28;20060;-60
2022/01/24 04:27:28;;;;;;;11.18;6.78;;;;;;;8.55;70.18;101627.44;5091223;28;20135;-60
2022/01/24 04:29:55;;;;;;;11.95;6.43;;;;;;;8.56;70.25;101628.31;5089778;28;20060;-59
2022/01/24 04:32:23;;;;;;;10.13;6.38;;;;;;;8.57;70.29;101627.41;5089958;28;20055;-59
2022/01/24 04:34:51;;;;;;;6.93;5.30;;;;;;;8.57;69.81;101630.88;5090851;28;20044;-59
2022/01/24 04:37:17;;;;;;;7.22;5.78;;;;;;;8.57;70.08;101624.78;5091204;28;20131;-60
2022/01/24 04:39:44;;;;;;;7.80;5.13;;;;;;;8.58;70.18;101629.13;5090677;28;20496;-60
2022/01/24 04:42:17;;;;;;;8.05;6.05;;;;;;;8.56;69.88;101628.31;5090921;28;20052;-59
2022/01/24 04:47:47;;;;;;;9.73;5.57;;;;;;;8.57;70.43;101637.91;5090993;28;20066;-59
2022/01/24 04:50:39;;;;;;;8.82;6.35;;;;;;;8.57;70.17;101635.28;5090843;28;20097;-59
2022/01/24 04:53:14;;;;;;;7.38;5.95;;;;;;;8.57;70.01;101625.63;5090937;28;20051;-60
2022/01/24 04:55:41;;;;;;;7.28;5.90;;;;;;;8.57;69.97;101633.50;5090807;28;20637;-59
2022/01/24 04:58:08;;;;;;;5.68;4.63;;;;;;;8.56;69.92;101630.94;5091032;28;20390;-59
2022/01/24 05:00:34;;;;;;;5.18;4.18;;;;;;;8.55;69.97;101622.19;5092562;28;20446;-60
2022/01/24 05:03:01;;;;;;;5.68;4.47;;;;;;;8.55;70.26;101626.56;5094930;28;20424;-59
2022/01/24 05:05:28;;;;;;;5.45;4.65;;;;;;;8.54;70.09;101619.59;5094649;28;20040;-61
2022/01/24 05:07:55;;;;;;;4.60;3.80;;;;;;;8.54;70.32;101612.59;5094724;28;20051;-59
2022/01/24 05:10:31;;;;;;;5.38;4.43;;;;;;;8.54;70.20;101615.22;5094905;28;20105;-59
2022/01/24 05:23:59;;;;;;;6.00;4.30;;;;;;;8.58;70.50;101622.13;5094518;28;20074;-61
2022/01/24 05:26:26;;;;;;;6.20;4.45;;;;;;;8.59;70.48;101623.00;5093143;28;20051;-59
2022/01/24 05:28:52;;;;;;;6.40;4.07;;;;;;;8.59;70.35;101620.34;5094235;28;20044;-59
2022/01/24 05:31:21;;;;;;;5.68;4.50;;;;;;;8.60;70.00;101620.34;5092784;28;20048;-59
2022/01/24 05:33:49;;;;;;;5.35;4.28;;;;;;;8.60;69.87;101620.34;5093166;28;20048;-60
2022/01/24 05:36:15;;;;;;;5.40;4.18;;;;;;;8.60;69.97;101611.63;5093204;28;20428;-59
2022/01/24 05:38:42;;;;;;;4.75;4.00;;;;;;;8.59;69.83;101615.09;5094255;28;20559;-60
2022/01/24 05:41:08;;;;;;;5.20;3.83;;;;;;;8.57;69.91;101612.50;5093996;28;20277;-60
2022/01/24 05:43:35;;;;;;;8.02;4.00;;;;;;;8.57;69.66;101612.50;5094060;28;20044;-59
2022/01/24 05:46:02;;;;;;;9.02;4.50;;;;;;;8.56;69.98;101604.69;5093988;28;20502;-60
2022/01/24 05:48:29;;;;;;;6.57;4.35;;;;;;;8.56;69.89;101608.16;5094168;28;20048;-60
2022/01/24 05:50:55;;;;;;;4.53;4.03;;;;;;;8.55;70.06;101597.69;5093649;28;20047;-59
2022/01/24 05:53:22;;;;;;;8.82;4.35;;;;;;;8.56;70.29;101602.06;5094174;28;20056;-59
2022/01/24 05:55:49;;;;;;;4.45;3.60;;;;;;;8.56;70.25;101602.06;5093822;28;20059;-62
2022/01/24 05:58:15;;;;;;;4.57;4.00;;;;;;;8.55;69.93;101603.81;5093596;28;20097;-59
2022/01/24 06:00:42;;;;;;;4.65;3.92;;;;;;;8.55;69.77;101608.19;5092381;28;20048;-60
2022/01/24 06:03:09;;;;;;;4.63;3.75;;;;;;;8.53;69.86;101603.00;5093766;28;20121;-59
2022/01/24 06:05:35;;;;;;;5.43;3.58;;;;;;;8.51;69.63;101601.22;5093643;28;20127;-59
2022/01/24 06:08:02;;;;;;;4.65;4.10;;;;;;;8.51;69.85;101607.34;5093786;28;20048;-60
2022/01/24 06:10:29;;;;;;;5.68;4.63;;;;;;;8.50;69.86;101604.75;5093352;28;20549;-59
2022/01/24 06:12:56;;;;;;;4.80;4.00;;;;;;;8.51;69.96;101611.72;5092541;28;20052;-59
2022/01/24 06:15:23;;;;;;;4.20;3.65;;;;;;;8.50;69.74;101615.25;5093929;28;20048;-61
2022/01/24 06:17:50;;;;;;;5.80;4.50;;;;;;;8.50;69.95;101617.88;5093588;28;20097;-62
2022/01/24 06:20:16;;;;;;;5.03;4.13;;;;;;;8.50;70.01;101617.88;5093048;28;20048;-60
2022/01/24 06:22:43;;;;;;;5.32;4.07;;;;;;;8.50;69.90;101612.63;5093319;28;20101;-59
2022/01/24 06:25:10;;;;;;;5.15;4.20;;;;;;;8.50;70.05;101617.88;5093107;28;20060;-60
2022/01/24 06:27:41;;;;;;;5.03;4.15;;;;;;;8.50;69.84;101618.75;5093505;28;20044;-59
2022/01/24 06:30:08;;;;;;;5.60;3.95;;;;;;;8.51;70.04;101623.09;5093089;28;20180;-59
2022/01/24 06:32:34;;;;;;;4.45;4.03;;;;;;;8.51;69.92;101617.84;5093282;28;20043;-58
2022/01/24 06:35:01;;;;;;;4.53;3.83;;;;;;;8.54;70.09;101614.34;5093175;28;20048;-59
2022/01/24 06:37:28;;;;;;;6.18;4.57;;;;;;;8.53;70.23;101610.88;5091786;28;20055;-61
2022/01/24 06:39:55;;;;;;;4.72;4.07;;;;;;;8.54;69.96;101620.47;5092760;28;20044;-59
2022/01/24 06:42:23;;;;;;;4.75;4.25;;;;;;;8.55;70.18;101618.69;5091928;28;20040;-61
2022/01/24 06:44:51;;;;;;;7.45;4.70;;;;;;;8.56;69.99;101612.56;5092607;28;20139;-59
2022/01/24 06:47:18;;;;;;;5.43;4.35;;;;;;;8.57;70.13;101616.91;5091620;28;20144;-61
2022/01/24 06:49:44;;;;;;;4.90;3.90;;;;;;;8.57;69.74;101614.28;5092469;28;20067;-60
2022/01/24 06:52:13;;;;;;;5.03;4.35;;;;;;;8.57;69.80;101625.63;5091471;28;20052;-60
2022/01/24 06:54:42;;;;;;;5.40;4.47;;;;;;;8.57;69.79;101625.63;5092548;28;20381;-61
2022/01/24 06:57:11;;;;;;;5.97;4.43;;;;;;;8.56;70.00;101626.53;5091284;28;20044;-59
2022/01/24 06:59:39;;;;;;;6.45;4.63;;;;;;;8.58;69.98;101631.75;5092872;28;20087;-59
2022/01/24 07:02:07;;;;;;;4.93;4.43;;;;;;;8.58;69.70;101626.50;5091483;28;20093;-59
2022/01/24 07:04:36;;;;;;;5.95;4.30;;;;;;;8.58;69.90;101632.63;5091225;28;20138;-59
2022/01/24 07:07:04;;;;;;;5.20;4.18;;;;;;;8.59;69.73;101638.72;5092343;28;20055;-60
2022/01/24 07:09:31;;;;;;;5.40;4.15;;;;;;;8.57;69.87;101636.13;5074455;28;20047;-59
2022/01/24 07:11:58;;;;;;;5.38;4.63;;;;;;;8.57;69.89;101638.75;5091209;28;20052;-60
2022/01/24 07:14:24;;;;;;;4.55;3.72;;;;;;;8.58;69.84;101637.00;5092421;28;20071;-61
2022/01/24 07:19:29;;;;;;;4.68;4.03;;;;;;;8.57;69.24;101643.16;5091780;28;20652;-62
2022/01/24 07:21:57;;;;;;;5.10;4.43;;;;;;;8.58;69.88;101644.88;5092013;28;20048;-60
2022/01/24 07:24:24;;;;;;;7.32;4.22;;;;;;;8.58;69.62;101642.25;5088751;28;20496;-59
2022/01/24 07:26:51;;;;;;;6.68;4.97;;;;;;;8.57;69.66;101651.03;5091134;28;20048;-61
2022/01/24 07:29:19;;;;;;;5.05;4.10;;;;;;;8.57;69.49;101645.78;5091527;28;20048;-59
2022/01/24 07:31:46;;;;;;;4.45;4.03;;;;;;;8.56;69.50;101657.19;5092009;28;20060;-59
2022/01/24 07:34:14;;;;;;;5.45;4.15;;;;;;;8.53;69.94;101654.59;5090925;28;20048;-61
2022/01/24 07:36:41;;;;;;;5.68;4.57;;;;;;;8.54;70.26;101657.22;5090749;28;20055;-59
2022/01/24 07:39:11;;;;;;;7.32;4.70;;;;;;;8.53;69.87;101651.97;5090540;28;20389;-60
2022/01/24 07:41:44;;;;;;;5.30;4.57;;;;;;;8.54;69.89;101653.72;5091692;28;20048;-59
2022/01/24 07:44:11;;;;;;;4.38;3.88;;;;;;;8.55;69.79;101650.19;5091879;28;20044;-59
2022/01/24 07:46:38;;;;;;;5.15;4.38;;;;;;;8.55;69.63;101655.44;5090300;28;20082;-61
2022/01/24 07:49:07;;;;;;;8.35;3.80;;;;;;;8.55;69.32;101651.06;5087829;28;20056;-60
2022/01/24 07:51:34;;;;;;;8.43;4.20;;;;;;;8.56;69.62;101649.31;5091087;28;20436;-62
2022/01/24 07:54:01;;;;;;;4.60;4.10;;;;;;;8.56;69.38;101659.81;5090300;28;20044;-59
2022/01/24 07:56:28;;;;;;;5.40;4.10;;;;;;;8.54;69.10;101648.47;5091178;28;20048;-60
2022/01/24 07:58:55;;;;;;;5.55;3.90;;;;;;;8.52;69.31;101648.44;5091624;28;20052;-60
2022/01/24 08:01:21;;;;;;;6.22;4.15;;;;;;;8.50;69.17;101647.63;5090355;28;20048;-60
2022/01/24 08:03:48;;;;;;;5.35;3.90;;;;;;;8.47;69.24;101648.56;5089482;28;20561;-60
2022/01/24 08:06:15;;;;;;;4.55;3.67;;;;;;;8.46;69.12;101638.91;5091410;28;20059;-60
2022/01/24 08:08:42;;;;;;;5.47;4.25;;;;;;;8.45;69.31;101642.44;5091418;28;20051;-60
2022/01/24 08:11:08;;;;;;;8.00;4.65;;;;;;;8.45;69.69;101647.69;5091045;28;20052;-59
2022/01/24 08:13:37;;;;;;;5.78;4.57;;;;;;;8.45;69.41;101650.31;5091282;28;20048;-59
2022/01/24 08:16:03;;;;;;;6.93;4.90;;;;;;;8.48;69.72;101649.41;5091627;28;20052;-59
2022/01/24 08:18:30;;;;;;;5.75;4.65;;;;;;;8.48;69.62;101652.91;5090973;28;20051;-61
2022/01/24 08:20:57;;;;;;;4.65;4.15;;;;;;;8.51;69.79;101651.09;5090909;28;20093;-61
2022/01/24 08:23:23;;;;;;;6.25;4.50;;;;;;;8.52;69.67;101651.06;5091017;28;20040;-61
2022/01/24 08:25:53;;;;;;;5.43;4.40;;;;;;;8.54;69.53;101653.72;5089823;28;20552;-60
2022/01/24 08:28:20;;;;;;;6.82;4.60;;;;;;;8.56;69.27;101662.44;5091092;28;20043;-62
2022/01/24 08:30:47;;;;;;;5.78;4.78;;;;;;;8.57;69.51;101656.28;5090981;28;20060;-60
2022/01/24 08:33:14;;;;;;;7.13;5.10;;;;;;;8.58;69.75;101653.63;5091231;28;20395;-59
2022/01/24 08:35:41;;;;;;;7.68;5.03;;;;;;;8.60;69.47;101658.88;5090578;28;20055;-60
2022/01/24 08:38:07;;;;;;;6.93;4.95;;;;;;;8.61;69.32;101652.72;5091051;28;20439;-60
2022/01/24 08:40:37;;;;;;;7.25;5.70;;;;;;;8.62;69.09;101656.19;5090689;28;20105;-60
2022/01/24 08:43:06;;;;;;;7.93;6.40;;;;;;;8.62;69.15;101656.19;5089996;28;20097;-60
2022/01/24 08:45:57;;;;;;;6.88;5.95;;;;;;;8.60;68.75;101657.09;5089873;28;20052;-61
2022/01/24 08:48:24;;;;;;;6.57;5.80;;;;;;;8.60;69.13;101664.97;5089796;28;20044;-61
2022/01/24 08:50:54;;;;;;;7.40;5.63;;;;;;;8.58;68.66;101660.63;5090670;28;20489;-62
2022/01/24 08:53:30;;;;;;;6.60;5.07;;;;;;;8.56;68.83;101651.94;5089881;28;20052;-60
2022/01/24 08:55:59;;;;;;;7.57;5.40;;;;;;;8.55;68.39;101648.44;5090849;28;20105;-60
2022/01/24 08:58:27;;;;;;;6.43;5.18;;;;;;;8.53;68.81;101652.88;5089578;28;20052;-60
2022/01/24 09:00:54;;;;;;;9.23;7.22;;;;;;;8.51;68.77;101654.59;5090698;28;20401;-60
2022/01/24 09:03:21;;;;;;;9.27;7.45;;;;;;;8.47;68.53;101645.94;5090623;28;20048;-66
2022/01/24 09:05:49;;;;;;;7.30;6.38;;;;;;;8.45;68.72;101646.84;5090737;28;20113;-61
2022/01/24 09:08:16;;;;;;;10.02;7.00;;;;;;;8.43;68.88;101643.38;5090883;28;20048;-60
2022/01/24 09:10:44;;;;;;;9.77;7.32;;;;;;;8.42;68.84;101646.91;5090446;28;20063;-59
2022/01/24 09:13:10;;;;;;;8.98;6.38;;;;;;;8.40;68.89;101644.28;5089374;28;20052;-60
2022/01/24 09:15:37;;;;;;;11.68;6.95;;;;;;;8.41;69.22;101639.91;5090836;28;20055;-60
2022/01/24 09:18:04;;;;;;;8.65;6.45;;;;;;;8.42;68.99;101646.91;5084965;28;20052;-60
2022/01/24 09:20:31;;;;;;;8.15;5.80;;;;;;;8.44;69.20;101650.34;5087660;28;20056;-60
2022/01/24 09:22:58;;;;;;;8.63;5.97;;;;;;;8.44;69.36;101647.72;5089300;28;20044;-60
2022/01/24 09:25:24;;;;;;;8.43;6.57;;;;;;;8.47;69.22;101658.16;5090114;28;20458;-60
2022/01/24 09:27:51;;;;;;;7.63;5.72;;;;;;;8.50;69.49;101660.75;5089637;28;20063;-60
2022/01/24 09:30:21;;;;;;;7.85;6.35;;;;;;;8.51;69.12;101657.22;5089224;28;20055;-60
2022/01/24 09:32:48;;;;;;;7.57;5.85;;;;;;;8.56;69.59;101659.81;5090239;28;20044;-59
2022/01/24 09:35:15;;;;;;;7.05;5.88;;;;;;;8.58;69.38;101652.75;5090430;28;20048;-60
2022/01/24 09:37:43;;;;;;;8.07;6.28;;;;;;;8.62;69.26;101648.31;5090055;28;20055;-59
2022/01/24 09:40:13;;;;;;;9.07;6.13;;;;;;;8.64;69.25;101647.41;5088561;28;20461;-59
2022/01/24 09:42:40;;;;;;;7.80;6.43;;;;;;;8.67;69.56;101649.97;5090230;28;20060;-61
2022/01/24 09:45:08;;;;;;;8.95;6.95;;;;;;;8.68;68.91;101649.06;5090165;28;20542;-60
2022/01/24 09:47:36;;;;;;;9.60;6.82;;;;;;;8.70;68.74;101652.53;5093610;28;20044;-59
2022/01/24 09:50:06;;;;;;;9.07;7.15;;;;;;;8.69;68.48;101650.81;5093290;28;20055;-60
2022/01/24 09:52:34;;;;;;;9.85;8.15;;;;;;;8.70;68.63;101651.66;5092665;28;20048;-60
2022/01/24 09:55:01;;;;;;;11.27;8.25;;;;;;;8.69;68.61;101650.81;5093797;28;20454;-60
2022/01/24 09:57:29;;;;;;;9.90;8.68;;;;;;;8.67;68.21;101649.97;5092245;28;20048;-60
2022/01/24 09:59:56;;;;;;;11.15;8.50;;;;;;;8.65;67.96;101649.16;5093113;28;20052;-60
2022/01/24 10:02:25;;;;;;;10.02;8.10;;;;;;;8.60;67.84;101649.22;5093596;28;20056;-61
2022/01/24 10:05:11;;;;;;;11.45;8.32;;;;;;;8.52;66.36;101655.47;5093550;28;20055;-60
2022/01/24 10:07:40;;;;;;;11.18;7.78;;;;;;;8.53;68.25;101649.38;5093442;28;20503;-60
2022/01/24 10:10:07;;;;;;;11.02;8.45;;;;;;;8.51;68.38;101649.34;5091469;28;20502;-62
2022/01/24 10:18:09;;;;;;;11.23;8.93;;;;;;;8.53;68.29;101657.22;5093093;28;20048;-60
2022/01/24 10:20:39;;;;;;;15.57;11.65;;;;;;;8.52;67.80;101658.09;5091205;28;20126;-60
2022/01/24 10:23:08;;;;;;;16.02;11.73;;;;;;;8.51;67.86;101662.47;5091879;28;20064;-59
2022/01/24 10:25:59;;;;;;;15.48;11.82;;;;;;;8.43;66.68;101649.50;5093464;28;20109;-60
2022/01/24 10:28:40;;;;;;;15.70;11.57;;;;;;;8.45;67.65;101659.97;5092725;28;20468;-60
2022/01/24 10:31:16;;;;;;;15.07;11.98;;;;;;;8.41;67.34;101653.03;5091076;28;20459;-59
2022/01/24 10:34:11;;;;;;;15.88;12.50;;;;;;;8.35;66.95;101652.22;5093270;28;20063;-59
2022/01/24 10:36:43;;;;;;;17.23;12.98;;;;;;;8.36;67.96;101647.84;5092990;28;20056;-60
2022/01/24 10:44:52;;;;;;;15.88;12.43;;;;;;;8.34;68.66;101644.41;5092827;28;20075;-60
2022/01/24 10:47:29;;;;;;;16.77;12.93;;;;;;;8.32;67.59;101636.56;5091471;28;20051;-61
2022/01/24 10:50:03;;;;;;;17.02;12.88;;;;;;;8.33;68.44;101640.91;5092459;28;20408;-60
2022/01/24 10:52:33;;;;;;;16.02;12.52;;;;;;;8.34;68.83;101637.38;5092369;28;20051;-59
2022/01/24 10:55:15;;;;;;;19.95;14.93;;;;;;;8.33;67.62;101637.41;5091414;28;20048;-61
2022/01/24 10:57:44;;;;;;;20.53;15.47;;;;;;;8.39;68.84;101642.56;5091829;28;20052;-60
2022/01/24 11:00:14;;;;;;;21.17;15.43;;;;;;;8.41;68.57;101646.00;5090614;28;20052;-60
2022/01/24 11:02:43;;;;;;;21.23;15.55;;;;;;;8.45;68.87;101641.59;5092538;28;20052;-61
2022/01/24 11:05:12;;;;;;;22.48;16.73;;;;;;;8.46;68.77;101641.53;5091169;28;20055;-60
2022/01/24 11:08:19;;;;;;;21.23;15.25;;;;;;;8.45;67.14;101642.44;5092085;28;20056;-60
2022/01/24 11:10:51;;;;;;;26.63;16.95;;;;;;;8.50;67.52;101644.13;5057625;28;20060;-61
2022/01/24 11:13:29;;;;;;;21.77;16.00;;;;;;;8.50;68.75;101642.38;5092401;28;20052;-60
2022/01/24 11:15:58;;;;;;;23.88;16.15;;;;;;;8.51;68.81;101637.97;5092526;28;20055;-61
2022/01/24 11:18:31;;;;;;;19.63;15.32;;;;;;;8.50;68.69;101626.63;5092017;28;20051;-59
2022/01/24 11:21:11;;;;;;;23.33;16.23;;;;;;;8.53;69.02;101628.38;5089983;28;20048;-62
2022/01/24 11:23:40;;;;;;;20.15;15.70;;;;;;;8.55;68.83;101629.19;5092231;28;20059;-61
2022/01/24 11:26:07;;;;;;;21.80;16.25;;;;;;;8.57;68.91;101620.38;5090821;28;20063;-61
2022/01/24 11:28:34;;;;;;;22.55;17.05;;;;;;;8.59;68.77;101617.72;5091634;28;20055;-59
2022/01/24 11:31:14;;;;;;;23.98;17.88;;;;;;;8.57;67.64;101624.78;5091297;28;20055;-58
2022/01/24 11:33:46;;;;;;;22.73;17.05;;;;;;;8.60;68.53;101619.50;5090447;28;20131;-60
2022/01/24 11:36:15;;;;;;;;;;;;;;;8.60;67.08;101625.59;5091210;28;20091;-59
2022/01/24 11:38:44;;;;;;;25.02;17.30;;;;;;;8.62;68.79;101628.19;5091583;28;19924;-60
2022/01/24 11:41:23;;;;;;;23.85;17.15;;;;;;;8.59;67.96;101617.72;5091240;28;20056;-59
2022/01/24 11:44:15;;;;;;;24.27;15.85;;;;;;;8.54;67.79;101606.47;5091561;28;20048;-61
2022/01/24 11:46:58;;;;;;;24.90;17.92;;;;;;;8.54;67.75;101611.72;5091442;28;20123;-59
2022/01/24 11:49:27;;;;;;;27.50;18.23;;;;;;;8.54;68.74;101603.84;5089552;28;20520;-61
2022/01/24 11:52:14;;;;;;;25.70;17.20;;;;;;;8.47;67.22;101601.31;5091499;28;20044;-59
2022/01/24 11:57:23;;;;;;;23.77;16.63;;;;;;;8.41;67.61;101604.03;5091687;28;20044;-61
2022/01/24 11:59:53;;;;;;;20.17;15.18;;;;;;;8.40;68.25;101606.66;5090679;28;20052;-60
2022/01/24 12:02:24;;;;;;;25.08;16.65;;;;;;;8.38;68.47;101598.84;5091228;28;20048;-60
2022/01/24 12:04:57;;;;;;;21.50;15.68;;;;;;;8.40;69.25;101594.44;5089963;28;20489;-62
2022/01/24 12:07:29;;;;;;;21.42;15.48;;;;;;;8.43;68.71;101591.75;5091375;28;20490;-61
2022/01/24 12:10:40;;;;;;;21.17;16.02;;;;;;;8.48;67.89;101599.53;5089792;28;20112;-60
2022/01/24 12:13:36;;;;;;;22.23;16.52;;;;;;;8.57;68.30;101598.53;5089953;28;20048;-60
2022/01/24 12:16:06;;;;;;;20.17;15.57;;;;;;;8.63;69.03;101598.41;5091088;28;20044;-60
2022/01/24 12:18:33;;;;;;;22.52;15.43;;;;;;;8.68;69.47;101606.22;5090918;28;20052;-60
2022/01/24 12:21:06;;;;;;;25.73;16.30;;;;;;;8.71;69.07;101607.00;5090793;28;20044;-60
2022/01/24 12:23:54;;;;;;;21.93;15.53;;;;;;;8.73;68.73;101607.84;5089775;28;20573;-60
2022/01/24 12:26:47;;;;;;;24.27;16.88;;;;;;;8.77;68.19;101600.78;5091001;28;20293;-59
2022/01/24 12:29:22;;;;;;;24.05;16.50;;;;;;;8.81;68.50;101594.56;5090084;28;20056;-59
2022/01/24 12:31:56;;;;;;;22.00;16.08;;;;;;;8.83;68.54;101594.53;5090862;28;20084;-60
2022/01/24 12:34:28;;;;;;;22.35;15.77;;;;;;;8.85;68.20;101592.75;5091239;28;20058;-60
2022/01/24 12:37:02;;;;;;;23.85;16.33;;;;;;;8.84;68.37;101596.25;5089687;28;20519;-60
2022/01/24 12:39:52;;;;;;;21.25;15.05;;;;;;;8.84;68.04;101591.00;5090050;28;20059;-60
2022/01/24 12:42:29;;;;;;;22.25;16.10;;;;;;;8.82;67.57;101585.78;5090577;28;20044;-60
2022/01/24 12:47:42;;;;;;;24.60;16.23;;;;;;;8.79;68.23;101585.00;5090643;28;20052;-60
2022/01/24 12:50:10;;;;;;;24.65;15.90;;;;;;;8.76;68.67;101582.41;5090248;28;20051;-60
2022/01/24 12:52:39;;;;;;;22.75;16.27;;;;;;;8.74;68.54;101582.44;5090628;28;20071;-60
2022/01/24 12:55:08;;;;;;;24.63;16.27;;;;;;;8.71;68.64;101583.38;5091220;28;20056;-59
2022/01/24 12:57:41;;;;;;;20.40;14.90;;;;;;;8.70;67.99;101584.28;5089311;28;20060;-60
2022/01/24 13:00:09;;;;;;;;;;;;;;;8.76;67.79;101577.16;5089288;28;20044;-60
2022/01/24 13:02:38;;;;;;;19.20;13.38;;;;;;;8.82;68.71;101577.06;5089312;28;19920;-59
2022/01/24 13:05:11;;;;;;;21.48;15.07;;;;;;;8.80;68.05;101576.22;5090419;28;20052;-61
2022/01/24 13:07:40;;;;;;;24.33;16.63;;;;;;;8.81;68.54;101570.06;5090669;28;20051;-60
2022/01/24 13:10:16;;;;;;;21.60;15.55;;;;;;;8.80;67.03;101570.97;5088899;28;20056;-61
2022/01/24 13:12:44;;;;;;;22.70;15.35;;;;;;;8.84;68.57;101572.63;5089134;28;20091;-60
2022/01/24 13:23:30;;;;;;;26.30;16.95;;;;;;;8.91;68.54;101563.75;5094384;28;20393;-60
2022/01/24 13:25:56;;;;;;;21.95;15.55;;;;;;;8.90;68.48;101564.63;5094286;28;20062;-59
2022/01/24 13:28:23;;;;;;;25.40;16.63;;;;;;;8.90;68.22;101558.50;5094223;28;20087;-60
2022/01/24 13:31:03;;;;;;;21.90;15.35;;;;;;;8.87;67.44;101554.19;5093619;28;20060;-60
2022/01/24 13:33:33;;;;;;;24.15;16.35;;;;;;;8.88;68.10;101558.53;5093253;28;20092;-61
2022/01/24 13:36:00;;;;;;;23.27;15.98;;;;;;;8.90;68.24;101555.88;5093209;28;20052;-60
2022/01/24 13:38:30;;;;;;;23.60;17.45;;;;;;;8.89;68.02;101562.91;5093863;28;20059;-61
2022/01/24 13:41:02;;;;;;;23.02;17.48;;;;;;;8.88;67.73;101563.78;5093589;28;20121;-60